createdAt,value
2023-05-02T00:01:20.012Z,87.97
2023-05-02T00:03:47.089Z,88.59
2023-05-02T00:06:13.897Z,88.45
2023-05-02T00:08:41.335Z,88.43
2023-05-02T00:11:08.053Z,87.98
2023-05-02T00:13:34.924Z,88.42
2023-05-02T00:16:01.888Z,87.84
2023-05-02T00:18:29.004Z,88.04
2023-05-02T00:20:57.096Z,88.02
2023-05-02T00:23:24.168Z,88.47
2023-05-02T00:25:51.078Z,88.66
2023-05-02T00:28:18.438Z,88.10
2023-05-02T00:30:45.967Z,88.18
2023-05-02T00:33:14.451Z,88.27
2023-05-02T00:35:41.718Z,88.37
2023-05-02T00:38:08.453Z,88.62
2023-05-02T00:40:49.677Z,88.02
2023-05-02T00:43:16.744Z,87.84
2023-05-02T00:45:45.604Z,86.56
2023-05-02T00:48:13.125Z,86.76
2023-05-02T00:50:41.980Z,87.79
2023-05-02T00:53:10.237Z,86.83
2023-05-02T00:55:37.495Z,86.83
2023-05-02T00:58:16.497Z,86.28
2023-05-02T01:01:11.059Z,87.10
2023-05-02T01:04:04.810Z,86.87
2023-05-02T01:07:00.585Z,87.23
2023-05-02T01:09:34.225Z,87.71
2023-05-02T01:12:04.857Z,87.91
2023-05-02T01:14:36.347Z,87.40
2023-05-02T01:17:08.313Z,88.01
2023-05-02T01:19:43.709Z,88.24
2023-05-02T01:22:11.884Z,88.02
2023-05-02T01:24:54.814Z,88.10
2023-05-02T01:27:35.051Z,88.43
2023-05-02T01:30:03.626Z,88.66
2023-05-02T01:32:33.600Z,89.19
2023-05-02T01:35:02.520Z,89.00
2023-05-02T01:37:31.150Z,89.25
2023-05-02T01:40:02.058Z,89.29
2023-05-02T01:42:30.532Z,88.54
2023-05-02T01:45:00.186Z,88.14
2023-05-02T01:47:30.447Z,87.28
2023-05-02T01:49:58.557Z,87.34
2023-05-02T01:52:27.495Z,87.77
2023-05-02T01:54:57.775Z,88.13
2023-05-02T01:57:25.697Z,88.09
2023-05-02T01:59:57.037Z,88.67
2023-05-02T02:02:29.274Z,88.78
2023-05-02T02:04:57.543Z,88.86
2023-05-02T02:07:24.446Z,88.25
2023-05-02T02:09:53.004Z,88.26
2023-05-02T02:12:31.155Z,87.97
2023-05-02T02:15:14.520Z,88.09
2023-05-02T02:17:46.423Z,87.17
2023-05-02T02:20:15.452Z,87.43
2023-05-02T02:22:44.348Z,86.42
2023-05-02T02:25:14.503Z,86.25
2023-05-02T02:27:42.541Z,86.13
2023-05-02T02:30:10.564Z,87.34
2023-05-02T02:32:38.114Z,87.38
2023-05-02T02:35:05.698Z,88.33
2023-05-02T02:37:41.065Z,87.70
2023-05-02T02:40:29.980Z,88.02
2023-05-02T02:43:05.728Z,86.21
2023-05-02T02:45:43.389Z,86.22
2023-05-02T02:48:16.620Z,87.19
2023-05-02T02:50:59.699Z,87.57
2023-05-02T02:53:33.216Z,87.40
2023-05-02T02:56:06.110Z,87.94
2023-05-02T02:58:55.353Z,87.67
2023-05-02T03:01:24.575Z,87.63
2023-05-02T03:03:53.553Z,87.91
2023-05-02T03:06:20.878Z,87.76
2023-05-02T03:08:48.371Z,88.00
2023-05-02T03:11:19.304Z,87.85
2023-05-02T03:13:47.362Z,88.15
2023-05-02T03:16:37.959Z,87.71
2023-05-02T03:19:08.518Z,87.86
2023-05-02T03:21:36.363Z,87.82
2023-05-02T03:24:10.132Z,87.00
2023-05-02T03:26:36.878Z,88.14
2023-05-02T03:29:05.640Z,87.98
2023-05-02T03:31:37.857Z,88.63
2023-05-02T03:34:05.588Z,88.99
2023-05-02T03:36:33.019Z,88.18
2023-05-02T03:38:59.748Z,87.07
2023-05-02T03:41:27.023Z,87.55
2023-05-02T03:44:01.175Z,87.99
2023-05-02T03:46:28.671Z,88.52
2023-05-02T03:48:58.114Z,88.19
2023-05-02T03:51:25.920Z,88.32
2023-05-02T03:53:55.368Z,88.79
2023-05-02T03:56:22.149Z,88.27
2023-05-02T03:59:07.300Z,88.81
2023-05-02T04:01:34.295Z,88.19
2023-05-02T04:04:02.482Z,88.22
2023-05-02T04:06:34.128Z,88.40
2023-05-02T04:09:04.304Z,88.81
2023-05-02T04:11:43.416Z,89.10
2023-05-02T04:14:12.361Z,88.97
2023-05-02T04:16:40.646Z,88.92
2023-05-02T04:19:07.571Z,88.41
2023-05-02T04:21:37.256Z,88.49
2023-05-02T04:24:06.060Z,87.74
2023-05-02T04:26:33.192Z,87.15
2023-05-02T04:29:05.720Z,87.75
2023-05-02T04:31:33.392Z,88.57
2023-05-02T04:34:00.362Z,87.94
2023-05-02T04:36:34.160Z,88.61
2023-05-02T04:39:01.720Z,89.01
2023-05-02T04:41:32.108Z,89.38
2023-05-02T04:44:04.002Z,89.51
2023-05-02T04:46:30.940Z,88.97
2023-05-02T04:48:57.853Z,89.05
2023-05-02T04:51:24.749Z,89.78
2023-05-02T04:53:52.632Z,89.87
2023-05-02T04:56:19.667Z,89.45
2023-05-02T04:58:46.965Z,89.98
2023-05-02T05:01:13.996Z,90.13
2023-05-02T05:03:41.196Z,90.62
2023-05-02T05:06:09.060Z,90.86
2023-05-02T05:08:36.062Z,90.35
2023-05-02T05:11:05.182Z,90.55
2023-05-02T05:13:32.716Z,90.54
2023-05-02T05:15:59.686Z,90.15
2023-05-02T05:18:30.907Z,90.42
2023-05-02T05:20:58.113Z,90.50
2023-05-02T05:23:24.840Z,90.33
2023-05-02T05:25:51.860Z,90.29
2023-05-02T05:28:19.254Z,90.14
2023-05-02T05:30:46.767Z,90.09
2023-05-02T05:33:17.628Z,90.41
2023-05-02T05:35:45.168Z,90.10
2023-05-02T05:38:11.890Z,90.44
2023-05-02T05:40:41.674Z,90.38
2023-05-02T05:43:09.171Z,90.28
2023-05-02T05:45:38.353Z,90.45
2023-05-02T05:48:06.547Z,90.50
2023-05-02T05:50:41.039Z,90.93
2023-05-02T05:53:08.053Z,90.65
2023-05-02T05:55:37.567Z,90.59
2023-05-02T05:58:06.235Z,90.53
2023-05-02T06:00:38.617Z,90.91
2023-05-02T06:03:08.941Z,90.77
2023-05-02T06:05:36.983Z,90.27
2023-05-02T06:08:03.958Z,89.74
2023-05-02T06:10:31.526Z,89.46
2023-05-02T06:47:30.139Z,85.83
2023-05-02T06:49:57.137Z,85.47
2023-05-02T06:52:24.061Z,86.20
2023-05-02T06:54:50.795Z,86.31
2023-05-02T06:57:17.574Z,85.53
2023-05-02T06:59:44.390Z,85.18
2023-05-02T07:02:11.397Z,85.55
2023-05-02T07:04:38.214Z,85.48
2023-05-02T07:07:05.097Z,85.08
2023-05-02T07:09:31.948Z,84.58
2023-05-02T07:11:58.794Z,83.69
2023-05-02T07:14:25.484Z,84.00
2023-05-02T07:16:53.417Z,84.98
2023-05-02T07:19:20.365Z,85.33
2023-05-02T07:21:47.040Z,85.64
2023-05-02T07:24:13.768Z,85.00
2023-05-02T07:26:41.096Z,83.47
2023-05-02T07:29:09.764Z,83.96
2023-05-02T07:31:36.602Z,82.25
2023-05-02T07:34:03.411Z,82.86
2023-05-02T07:36:30.105Z,83.83
2023-05-02T07:38:57.160Z,83.35
2023-05-02T07:41:23.907Z,83.76
2023-05-02T07:43:50.635Z,84.49
2023-05-02T07:46:17.435Z,84.61
2023-05-02T07:48:45.069Z,83.40
2023-05-02T07:51:12.194Z,82.40
2023-05-02T07:53:38.903Z,82.36
2023-05-02T07:56:07.203Z,82.66
2023-05-02T07:58:37.314Z,82.38
2023-05-02T08:01:04.708Z,81.03
2023-05-02T08:03:31.666Z,81.22
2023-05-02T08:05:58.659Z,81.69
2023-05-02T08:08:25.410Z,80.93
2023-05-02T08:10:52.206Z,81.74
2023-05-02T08:13:18.996Z,81.88
2023-05-02T08:15:46.163Z,82.00
2023-05-02T08:18:13.142Z,81.35
2023-05-02T08:20:39.909Z,81.25
2023-05-02T08:23:06.798Z,80.25
2023-05-02T08:25:33.563Z,81.32
2023-05-02T08:28:03.275Z,80.77
2023-05-02T08:30:30.073Z,77.66
2023-05-02T08:32:59.169Z,77.81
2023-05-02T08:35:26.086Z,77.71
2023-05-02T08:37:52.912Z,75.11
2023-05-02T08:40:33.627Z,74.94
2023-05-02T08:43:07.512Z,73.64
2023-05-02T08:45:43.132Z,75.39
2023-05-02T08:48:12.119Z,77.46
2023-05-02T08:50:50.199Z,76.08
2023-05-02T08:53:18.624Z,75.98
2023-05-02T08:55:46.885Z,70.31
2023-05-02T08:58:16.129Z,62.72
2023-05-02T09:00:48.643Z,53.10
2023-05-02T09:03:32.798Z,54.71
2023-05-02T09:06:16.417Z,58.29
2023-05-02T09:08:44.673Z,55.47
2023-05-02T09:11:12.912Z,55.50
2023-05-02T09:13:53.647Z,58.42
2023-05-02T09:16:25.636Z,62.03
2023-05-02T09:18:54.595Z,63.15
2023-05-02T09:21:27.033Z,58.87
2023-05-02T09:23:59.360Z,58.05
2023-05-02T09:26:33.656Z,63.20
2023-05-02T09:29:02.369Z,63.15
2023-05-02T09:34:10.598Z,64.83
2023-05-02T09:36:42.155Z,63.28
2023-05-02T09:39:16.914Z,64.06
2023-05-02T09:41:46.798Z,60.93
2023-05-02T09:44:19.532Z,62.08
2023-05-02T09:47:00.448Z,65.82
2023-05-02T09:49:41.186Z,64.21
2023-05-02T09:52:16.016Z,63.06
2023-05-02T09:54:43.391Z,58.45
2023-05-02T09:57:11.348Z,54.27
2023-05-02T09:59:41.693Z,56.83
2023-05-02T10:02:11.422Z,58.19
2023-05-02T10:04:39.344Z,53.92
2023-05-02T10:07:10.504Z,54.69
2023-05-02T10:09:43.508Z,50.17
2023-05-02T10:12:12.608Z,54.03
2023-05-02T10:14:53.289Z,55.39
2023-05-02T10:17:31.105Z,54.36
2023-05-02T10:20:03.922Z,53.58
2023-05-02T10:22:33.424Z,52.98
2023-05-02T10:25:01.670Z,55.06
2023-05-02T10:27:30.365Z,54.56
2023-05-02T10:29:58.911Z,54.93
2023-05-02T10:32:29.532Z,52.25
2023-05-02T10:35:06.355Z,51.83
2023-05-02T10:37:36.451Z,48.47
2023-05-02T10:40:06.016Z,50.10
2023-05-02T10:42:39.137Z,48.90
2023-05-02T10:45:12.132Z,43.95
2023-05-02T10:47:39.114Z,44.19
2023-05-02T10:50:06.504Z,47.81
2023-05-02T10:52:38.347Z,50.86
2023-05-02T10:55:20.115Z,52.47
2023-05-02T10:57:59.296Z,49.63
2023-05-02T11:00:32.068Z,48.84
2023-05-02T11:03:00.076Z,44.38
2023-05-02T11:05:27.660Z,45.83
2023-05-02T11:08:16.789Z,43.73
2023-05-02T11:10:46.159Z,45.29
2023-05-02T11:13:13.183Z,45.02
2023-05-02T11:15:39.867Z,45.88
2023-05-02T11:18:09.866Z,46.57
2023-05-02T11:20:39.660Z,43.90
2023-05-02T11:23:26.228Z,44.78
2023-05-02T11:25:57.485Z,48.62
2023-05-02T11:28:50.261Z,43.99
2023-05-02T11:31:28.865Z,44.74
2023-05-02T11:34:02.868Z,45.60
2023-05-02T11:36:30.659Z,44.29
2023-05-02T11:38:57.382Z,42.67
2023-05-02T11:41:38.349Z,46.01
2023-05-02T11:44:05.678Z,41.22
2023-05-02T11:46:32.812Z,45.76
2023-05-02T11:49:01.224Z,42.85
2023-05-02T11:51:28.074Z,44.81
2023-05-02T11:53:55.555Z,42.07
2023-05-02T11:56:29.178Z,42.09
2023-05-02T11:59:01.045Z,43.81
2023-05-02T12:01:28.401Z,43.40
2023-05-02T12:04:07.845Z,43.73
2023-05-02T12:06:35.615Z,43.26
2023-05-02T12:09:14.273Z,40.46
2023-05-02T12:12:09.854Z,43.30
2023-05-02T12:14:38.081Z,42.04
2023-05-02T12:17:04.832Z,41.21
2023-05-02T12:19:31.629Z,43.33
2023-05-02T12:21:58.517Z,41.21
2023-05-02T12:24:25.696Z,42.85
2023-05-02T12:27:12.351Z,41.64
2023-05-02T12:29:49.104Z,40.03
2023-05-02T12:32:19.255Z,42.35
2023-05-02T12:34:46.438Z,42.90
2023-05-02T12:37:13.158Z,43.33
2023-05-02T12:39:44.595Z,43.85
2023-05-02T12:42:15.714Z,44.01
2023-05-02T12:44:45.255Z,39.44
2023-05-02T12:47:13.803Z,42.55
2023-05-02T12:49:52.781Z,40.42
2023-05-02T12:52:51.606Z,40.75
2023-05-02T12:55:19.850Z,40.93
2023-05-02T12:57:47.160Z,41.15
2023-05-02T13:00:16.670Z,42.39
2023-05-02T13:02:43.484Z,44.05
2023-05-02T13:05:16.724Z,43.74
2023-05-02T13:07:43.789Z,42.29
2023-05-02T13:10:14.244Z,42.81
2023-05-02T13:12:43.745Z,42.35
2023-05-02T13:15:11.640Z,43.04
2023-05-02T13:17:38.863Z,42.30
2023-05-02T13:20:07.593Z,45.27
2023-05-02T13:22:34.579Z,41.11
2023-05-02T13:25:01.345Z,41.04
2023-05-02T13:27:28.291Z,43.79
2023-05-02T13:29:55.073Z,45.55
2023-05-02T13:32:22.060Z,40.72
2023-05-02T13:34:48.848Z,40.79
2023-05-02T13:37:15.701Z,41.64
2023-05-02T13:39:42.432Z,42.78
2023-05-02T13:42:09.164Z,44.66
2023-05-02T13:44:36.551Z,45.52
2023-05-02T13:47:04.062Z,45.63
2023-05-02T13:49:31.173Z,42.96
2023-05-02T13:51:57.894Z,44.59
2023-05-02T13:54:24.691Z,43.72
2023-05-02T13:56:51.468Z,41.80
2023-05-02T13:59:18.251Z,43.53
2023-05-02T14:01:45.023Z,43.76
2023-05-02T14:04:12.012Z,43.62
2023-05-02T14:06:39.041Z,45.85
2023-05-02T14:09:07.272Z,44.43
2023-05-02T14:11:34.085Z,44.44
2023-05-02T14:14:01.174Z,41.34
2023-05-02T14:16:28.171Z,41.98
2023-05-02T14:18:55.162Z,40.87
2023-05-02T14:21:21.898Z,43.51
2023-05-02T14:23:48.601Z,42.44
2023-05-02T14:26:20.172Z,43.63
2023-05-02T14:28:47.245Z,43.25
2023-05-02T14:31:14.182Z,44.63
2023-05-02T14:33:41.245Z,46.41
2023-05-02T14:36:07.934Z,43.28
2023-05-02T14:38:35.534Z,43.91
2023-05-02T14:41:03.165Z,43.28
2023-05-02T14:43:29.905Z,44.72
2023-05-02T14:45:57.776Z,41.10
2023-05-02T14:48:25.349Z,43.03
2023-05-02T14:50:52.078Z,41.88
2023-05-02T14:53:20.735Z,42.31
2023-05-02T14:55:47.553Z,43.07
2023-05-02T14:58:20.664Z,41.83
2023-05-02T15:00:48.216Z,42.88
2023-05-02T15:03:17.509Z,43.22
2023-05-02T15:05:44.527Z,42.12
2023-05-02T15:08:11.304Z,41.34
2023-05-02T15:10:39.316Z,43.83
2023-05-02T15:13:06.829Z,43.42
2023-05-02T15:15:33.714Z,41.44
2023-05-02T15:18:00.660Z,41.83
2023-05-02T15:20:27.383Z,43.82
2023-05-02T15:22:54.192Z,42.61
2023-05-02T15:25:20.987Z,42.93
2023-05-02T15:27:47.731Z,43.56
2023-05-02T15:30:15.903Z,44.23
2023-05-02T15:32:43.857Z,43.49
2023-05-02T15:35:13.650Z,43.40
2023-05-02T15:37:40.444Z,44.78
2023-05-02T15:40:07.942Z,44.06
2023-05-02T15:42:36.982Z,44.21
2023-05-02T15:45:04.673Z,44.03
2023-05-02T15:47:31.777Z,42.81
2023-05-02T15:49:58.922Z,44.83
2023-05-02T15:52:25.742Z,43.67
2023-05-02T15:54:52.930Z,44.45
2023-05-02T15:57:19.955Z,43.78
2023-05-02T15:59:46.780Z,45.97
2023-05-02T16:02:13.823Z,46.10
2023-05-02T16:04:41.237Z,45.42
2023-05-02T16:07:07.988Z,45.87
2023-05-02T16:09:34.913Z,46.04
2023-05-02T16:12:01.674Z,47.19
2023-05-02T16:14:29.065Z,46.51
2023-05-02T16:16:56.401Z,47.02
2023-05-02T16:19:23.224Z,49.45
2023-05-02T16:21:50.147Z,50.80
2023-05-02T16:24:17.208Z,51.97
2023-05-02T16:26:45.565Z,52.74
2023-05-02T16:29:12.553Z,54.35
2023-05-02T16:31:39.325Z,54.89
2023-05-02T16:34:06.443Z,55.20
2023-05-02T16:36:33.456Z,55.00
2023-05-02T16:39:00.264Z,56.24
2023-05-02T16:41:27.477Z,57.42
2023-05-02T16:43:54.222Z,56.09
2023-05-02T16:46:21.002Z,56.04
2023-05-02T16:48:47.818Z,57.20
2023-05-02T16:51:14.552Z,57.46
2023-05-02T16:53:43.570Z,55.73
2023-05-02T16:56:10.401Z,50.16
2023-05-02T16:58:37.090Z,51.16
2023-05-02T17:01:05.367Z,48.93
2023-05-02T17:03:32.146Z,44.79
2023-05-02T17:06:01.106Z,47.02
2023-05-02T17:08:28.425Z,50.85
2023-05-02T17:10:56.310Z,50.99
2023-05-02T17:13:23.101Z,49.20
2023-05-02T17:15:50.078Z,49.07
2023-05-02T17:18:16.967Z,49.04
2023-05-02T17:20:46.058Z,48.71
2023-05-02T17:23:12.998Z,48.04
2023-05-02T17:25:39.905Z,50.54
2023-05-02T17:28:06.672Z,50.06
2023-05-02T17:30:34.033Z,48.97
2023-05-02T17:33:01.339Z,49.70
2023-05-02T17:35:28.200Z,48.61
2023-05-02T17:37:55.484Z,49.17
2023-05-02T17:40:22.296Z,49.46
2023-05-02T17:42:49.116Z,47.75
2023-05-02T17:45:16.820Z,47.25
2023-05-02T17:47:45.977Z,47.71
2023-05-02T17:50:14.269Z,46.81
2023-05-02T17:52:41.125Z,48.08
2023-05-02T17:55:08.792Z,47.38
2023-05-02T17:57:35.803Z,47.63
2023-05-02T18:00:04.621Z,49.37
2023-05-02T18:02:33.585Z,49.59
2023-05-02T18:05:01.734Z,51.00
2023-05-02T18:07:30.087Z,54.01
2023-05-02T18:09:57.118Z,55.39
2023-05-02T18:12:24.308Z,56.34
2023-05-02T18:14:52.659Z,57.94
2023-05-02T18:17:20.955Z,58.87
2023-05-02T18:19:50.144Z,58.86
2023-05-02T18:22:19.660Z,59.97
2023-05-02T18:24:47.209Z,59.57
2023-05-02T18:27:14.650Z,59.33
2023-05-02T18:29:41.553Z,60.33
2023-05-02T18:32:08.752Z,61.37
2023-05-02T18:34:38.439Z,62.13
2023-05-02T18:37:06.929Z,62.33
2023-05-02T18:39:34.418Z,63.13
2023-05-02T18:42:03.221Z,62.67
2023-05-02T18:44:30.935Z,63.22
2023-05-02T18:46:58.025Z,63.70
2023-05-02T18:49:26.308Z,63.85
2023-05-02T18:51:54.675Z,64.69
2023-05-02T18:54:23.450Z,64.63
2023-05-02T18:56:50.519Z,64.70
2023-05-02T18:59:19.114Z,64.68
2023-05-02T19:01:48.494Z,64.04
2023-05-02T19:04:15.543Z,64.17
2023-05-02T19:06:43.171Z,64.03
2023-05-02T19:09:10.092Z,63.56
2023-05-02T19:11:36.931Z,63.51
2023-05-02T19:14:04.052Z,64.33
2023-05-02T19:16:31.751Z,64.55
2023-05-02T19:18:58.905Z,64.59
2023-05-02T19:21:25.936Z,64.95
2023-05-02T19:23:53.775Z,65.29
2023-05-02T19:26:20.762Z,65.89
2023-05-02T19:28:47.703Z,65.39
2023-05-02T19:31:17.944Z,65.37
2023-05-02T19:33:52.160Z,64.34
2023-05-02T19:36:20.348Z,65.04
2023-05-02T19:38:59.748Z,65.87
2023-05-02T19:41:27.238Z,65.51
2023-05-02T19:43:56.999Z,65.22
2023-05-02T19:46:23.909Z,64.88
2023-05-02T19:48:50.900Z,64.11
2023-05-02T19:51:22.205Z,64.31
2023-05-02T19:53:49.702Z,63.88
2023-05-02T19:56:16.715Z,64.31
2023-05-02T19:58:44.165Z,65.04
2023-05-02T20:01:11.519Z,65.81
2023-05-02T20:03:39.045Z,65.65
2023-05-02T20:06:06.944Z,65.92
2023-05-02T20:08:34.752Z,65.78
2023-05-02T20:11:01.751Z,65.38
2023-05-02T20:13:28.843Z,65.63
2023-05-02T20:15:56.152Z,66.49
2023-05-02T20:18:23.393Z,66.74
2023-05-02T20:20:50.558Z,66.49
2023-05-02T20:23:17.538Z,66.72
2023-05-02T20:25:45.217Z,65.74
2023-05-02T20:28:12.432Z,65.88
2023-05-02T20:30:40.138Z,65.90
2023-05-02T20:33:15.484Z,66.50
2023-05-02T20:35:43.251Z,67.50
2023-05-02T20:38:10.650Z,67.47
2023-05-02T20:40:42.908Z,66.69
2023-05-02T20:43:09.919Z,66.44
2023-05-02T20:45:39.141Z,66.80
2023-05-02T20:48:06.844Z,67.27
2023-05-02T20:50:34.050Z,66.38
2023-05-02T20:53:01.107Z,66.17
2023-05-02T20:55:30.788Z,66.45
2023-05-02T20:57:58.148Z,66.68
2023-05-02T21:00:25.517Z,65.61
2023-05-02T21:02:52.958Z,65.95
2023-05-02T21:05:20.453Z,66.72
2023-05-02T21:07:47.403Z,66.33
2023-05-02T21:10:15.150Z,66.85
2023-05-02T21:12:42.314Z,66.93
2023-05-02T21:15:09.695Z,67.31
2023-05-02T21:17:39.722Z,66.74
2023-05-02T21:20:07.828Z,66.99
2023-05-02T21:22:35.163Z,67.16
2023-05-02T21:25:03.320Z,66.89
2023-05-02T21:27:30.532Z,66.93
2023-05-02T21:29:57.370Z,66.61
2023-05-02T21:32:26.045Z,66.57
2023-05-02T21:34:52.924Z,67.22
2023-05-02T21:37:19.812Z,67.99
2023-05-02T21:39:46.580Z,68.58
2023-05-02T21:42:13.443Z,69.12
2023-05-02T21:44:40.228Z,68.32
2023-05-02T21:47:07.054Z,68.91
2023-05-02T21:49:33.914Z,69.21
2023-05-02T21:52:00.848Z,69.89
2023-05-02T21:54:27.713Z,68.64
2023-05-02T21:56:54.484Z,70.76
2023-05-02T21:59:21.233Z,70.86
2023-05-02T22:01:48.075Z,71.10
2023-05-02T22:04:14.878Z,71.77
2023-05-02T22:06:42.369Z,72.20
2023-05-02T22:09:10.484Z,72.63
2023-05-02T22:11:37.464Z,70.36
2023-05-02T22:14:04.309Z,69.62
2023-05-02T22:16:31.345Z,69.89
2023-05-02T22:18:58.141Z,70.77
2023-05-02T22:21:25.199Z,72.06
2023-05-02T22:23:52.010Z,70.70
2023-05-02T22:26:18.772Z,69.25
2023-05-02T22:28:45.554Z,70.31
2023-05-02T22:31:12.526Z,70.86
2023-05-02T22:33:39.240Z,71.32
2023-05-02T22:36:06.247Z,70.96
2023-05-02T22:38:33.197Z,71.17
2023-05-02T22:41:00.917Z,70.52
2023-05-02T22:43:27.660Z,71.04
2023-05-02T22:45:54.635Z,72.09
2023-05-02T22:48:21.364Z,71.55
2023-05-02T22:50:48.854Z,70.63
2023-05-02T22:53:15.905Z,70.34
2023-05-02T22:55:42.649Z,70.49
2023-05-02T22:58:09.376Z,70.44
2023-05-02T23:00:36.600Z,71.80
2023-05-02T23:03:03.399Z,70.09
2023-05-02T23:05:30.492Z,71.16
2023-05-02T23:07:58.049Z,70.01
2023-05-02T23:10:25.112Z,71.42
2023-05-02T23:12:51.836Z,71.46
2023-05-02T23:15:18.911Z,71.76
2023-05-02T23:17:45.670Z,71.86
2023-05-02T23:20:12.790Z,72.22
2023-05-02T23:22:46.457Z,71.50
2023-05-02T23:25:15.034Z,71.74
2023-05-02T23:27:41.824Z,72.12
2023-05-02T23:30:09.342Z,72.52
2023-05-02T23:32:36.826Z,72.48
2023-05-02T23:35:05.827Z,72.44
2023-05-02T23:37:33.117Z,71.66
2023-05-02T23:40:01.119Z,71.50
2023-05-02T23:42:29.911Z,72.32
2023-05-02T23:44:57.924Z,71.70
2023-05-02T23:47:28.865Z,72.09
2023-05-02T23:49:55.661Z,72.21
2023-05-02T23:52:22.387Z,71.12
2023-05-02T23:54:49.643Z,71.68
2023-05-02T23:57:16.354Z,72.67
2023-05-02T23:59:43.231Z,72.88
